Tiger Henan — VRPT3 — position and weather

sailwx.info

Track history (hours):
 
Tides and Currents Weather Stations Pressure Air Temp Water Temp Dewpoint Dewpoint Depression Visibility Wind Speed Wind Dir Waves Ship Positions

Tiger Henan

Last reported at 2018-May-10 17:47 UTC. Time now 2018-Jun-19 10:33 UTC.
Position N 09°11' W 079°52'.
Warning: this ship's position is 39 days out of date.

Length 199 m; draft 12 m.

Type: Cargo ship. MMSI: 477669900.

Date/timePositionNaut miles runAvg speedWind from/ knotsBaromVisibWave heightAir tempDewpointWater temp
2018-May-10 17:47N 09°11' W 079°52'310.5
2018-May-10 17:29N 09°12' W 079°55'1 1.1
2018-May-10 16:20N 09°13' W 079°56'0 0.1
2018-May-10 15:56N 09°13' W 079°56'0 0.0
2018-May-10 15:26N 09°13' W 079°56'0 0.0
2018-May-10 13:32N 09°13' W 079°56'0 0.1
2018-May-10 13:29N 09°13' W 079°56'0 0.3
2018-May-10 12:56N 09°13' W 079°56'1 1.8
2018-May-10 12:28N 09°14' W 079°56'3 5.4
2018-May-10 12:00N 09°16' W 079°55'0 0.6
2018-May-10 11:30N 09°16' W 079°55'0 0.3
2018-May-10 11:00N 09°17' W 079°55'0 0.3
2018-May-10 10:30N 09°17' W 079°55'0 0.5
2018-May-10 10:00N 09°17' W 079°55'1 2.3
2018-May-10 09:30N 09°18' W 079°55'2 4.4
2018-May-10 09:00N 09°20' W 079°55'2 5.0
2018-May-10 08:30N 09°23' W 079°55'2 4.3
2018-May-10 08:00N 09°25' W 079°55'1 1.9
2018-May-10 07:30N 09°26' W 079°56'0 0.2
2018-May-10 07:00N 09°26' W 079°56'0 0.0
2018-May-10 06:30N 09°26' W 079°56'0 0.0
2018-May-10 05:57N 09°26' W 079°56'0 0.0
2018-May-10 05:30N 09°26' W 079°56'0 0.0
2018-May-10 04:57N 09°26' W 079°56'0 0.0
2018-May-10 04:30N 09°26' W 079°56'0 0.0
2018-May-10 04:00N 09°26' W 079°56'0 0.0
2018-May-10 03:30N 09°26' W 079°56'0 0.0
2018-May-10 03:00N 09°26' W 079°56'0 0.0
2018-May-10 02:30N 09°26' W 079°56'0 0.0
2018-May-10 02:00N 09°26' W 079°56'0 0.0
2018-May-10 01:30N 09°26' W 079°56'0 0.0
2018-May-10 01:00N 09°26' W 079°56'0 0.0
2018-May-10 00:30N 09°26' W 079°56'0 0.0
2018-May-10 00:00N 09°26' W 079°56'0 0.0
2018-May-09 23:30N 09°26' W 079°56'0 0.0
2018-May-09 23:00N 09°26' W 079°56'0 0.0
2018-May-09 22:30N 09°26' W 079°56'0 0.0
2018-May-09 22:00N 09°26' W 079°56'0 0.0
2018-May-09 21:30N 09°26' W 079°56'0 0.0
2018-May-09 20:57N 09°26' W 079°56'0 0.0
2018-May-09 20:30N 09°26' W 079°56'0 0.0
2018-May-09 20:00N 09°26' W 079°56'0 0.0
2018-May-09 19:30N 09°26' W 079°56'0 0.0
2018-May-09 19:00N 09°26' W 079°56'0 0.0
2018-May-09 18:30N 09°26' W 079°56'0 0.0
2018-May-09 17:48N 09°26' W 079°56'0 0.0
2018-May-09 17:30N 09°26' W 079°56'0 0.0
2018-May-09 17:00N 09°26' W 079°56'0 0.0
2018-May-09 16:30N 09°26' W 079°56'0 0.0
2018-May-09 16:00N 09°26' W 079°56'0 0.0
2018-May-09 15:30N 09°26' W 079°56'0 0.0
2018-May-09 15:00N 09°26' W 079°56'0 0.0
2018-May-09 14:30N 09°26' W 079°56'0 0.3
2018-May-09 14:00N 09°25' W 079°56'2 3.8
2018-May-09 13:30N 09°27' W 079°55'3 6.9
2018-May-09 13:00N 09°30' W 079°54'  
Track history (hours):
 
Tides and Currents Weather Stations Pressure Air Temp Water Temp Dewpoint Dewpoint Depression Visibility Wind Speed Wind Dir Waves Ship Positions

Tiger Henan

Last reported at 2018-May-10 17:47 UTC. Time now 2018-Jun-19 10:33 UTC.
Position N 09°11' W 079°52'.
Warning: this ship's position is 39 days out of date.

Length 199 m; draft 12 m.

Type: Cargo ship. MMSI: 477669900.

Date/timePositionNaut miles runAvg speedWind from/ knotsBaromVisibWave heightAir tempDewpointWater temp
2018-May-10 17:47N 09°11' W 079°52'310.5
2018-May-10 17:29N 09°12' W 079°55'1 1.1
2018-May-10 16:20N 09°13' W 079°56'0 0.1
2018-May-10 15:56N 09°13' W 079°56'0 0.0
2018-May-10 15:26N 09°13' W 079°56'0 0.0
2018-May-10 13:32N 09°13' W 079°56'0 0.1
2018-May-10 13:29N 09°13' W 079°56'0 0.3
2018-May-10 12:56N 09°13' W 079°56'1 1.8
2018-May-10 12:28N 09°14' W 079°56'3 5.4
2018-May-10 12:00N 09°16' W 079°55'0 0.6
2018-May-10 11:30N 09°16' W 079°55'0 0.3
2018-May-10 11:00N 09°17' W 079°55'0 0.3
2018-May-10 10:30N 09°17' W 079°55'0 0.5
2018-May-10 10:00N 09°17' W 079°55'1 2.3
2018-May-10 09:30N 09°18' W 079°55'2 4.4
2018-May-10 09:00N 09°20' W 079°55'2 5.0
2018-May-10 08:30N 09°23' W 079°55'2 4.3
2018-May-10 08:00N 09°25' W 079°55'1 1.9
2018-May-10 07:30N 09°26' W 079°56'0 0.2
2018-May-10 07:00N 09°26' W 079°56'0 0.0
2018-May-10 06:30N 09°26' W 079°56'0 0.0
2018-May-10 05:57N 09°26' W 079°56'0 0.0
2018-May-10 05:30N 09°26' W 079°56'0 0.0
2018-May-10 04:57N 09°26' W 079°56'0 0.0
2018-May-10 04:30N 09°26' W 079°56'0 0.0
2018-May-10 04:00N 09°26' W 079°56'0 0.0
2018-May-10 03:30N 09°26' W 079°56'0 0.0
2018-May-10 03:00N 09°26' W 079°56'0 0.0
2018-May-10 02:30N 09°26' W 079°56'0 0.0
2018-May-10 02:00N 09°26' W 079°56'0 0.0
2018-May-10 01:30N 09°26' W 079°56'0 0.0
2018-May-10 01:00N 09°26' W 079°56'0 0.0
2018-May-10 00:30N 09°26' W 079°56'0 0.0
2018-May-10 00:00N 09°26' W 079°56'0 0.0
2018-May-09 23:30N 09°26' W 079°56'0 0.0
2018-May-09 23:00N 09°26' W 079°56'0 0.0
2018-May-09 22:30N 09°26' W 079°56'0 0.0
2018-May-09 22:00N 09°26' W 079°56'0 0.0
2018-May-09 21:30N 09°26' W 079°56'0 0.0
2018-May-09 20:57N 09°26' W 079°56'0 0.0
2018-May-09 20:30N 09°26' W 079°56'0 0.0
2018-May-09 20:00N 09°26' W 079°56'0 0.0
2018-May-09 19:30N 09°26' W 079°56'0 0.0
2018-May-09 19:00N 09°26' W 079°56'0 0.0
2018-May-09 18:30N 09°26' W 079°56'0 0.0
2018-May-09 17:48N 09°26' W 079°56'0 0.0
2018-May-09 17:30N 09°26' W 079°56'0 0.0
2018-May-09 17:00N 09°26' W 079°56'0 0.0
2018-May-09 16:30N 09°26' W 079°56'0 0.0
2018-May-09 16:00N 09°26' W 079°56'0 0.0
2018-May-09 15:30N 09°26' W 079°56'0 0.0
2018-May-09 15:00N 09°26' W 079°56'0 0.0
2018-May-09 14:30N 09°26' W 079°56'0 0.3
2018-May-09 14:00N 09°25' W 079°56'2 3.8
2018-May-09 13:30N 09°27' W 079°55'3 6.9
2018-May-09 13:00N 09°30' W 079°54'  

Dump ship's entire track history